sensor_id;sensor_type;location;lat;lon;timestamp;P1;durP1;ratioP1;P2;durP2;ratioP2
5774;SDS011;2913;51.120;6.772;2024-03-02T00:00:04;1224.53;;;349.05;;
5774;SDS011;2913;51.120;6.772;2024-03-02T00:02:41;866.20;;;276.88;;
5774;SDS011;2913;51.120;6.772;2024-03-02T00:05:12;4.13;;;1.10;;
5774;SDS011;2913;51.120;6.772;2024-03-02T00:07:43;3.22;;;1.73;;
5774;SDS011;2913;51.120;6.772;2024-03-02T00:10:09;1.70;;;1.10;;
5774;SDS011;2913;51.120;6.772;2024-03-02T00:12:39;6.32;;;2.47;;
5774;SDS011;2913;51.120;6.772;2024-03-02T00:17:55;2.00;;;1.35;;
5774;SDS011;2913;51.120;6.772;2024-03-02T00:20:21;1.75;;;1.23;;
5774;SDS011;2913;51.120;6.772;2024-03-02T00:22:52;4.57;;;1.70;;
5774;SDS011;2913;51.120;6.772;2024-03-02T00:25:27;1.77;;;0.93;;
5774;SDS011;2913;51.120;6.772;2024-03-02T00:27:59;4.25;;;1.52;;
5774;SDS011;2913;51.120;6.772;2024-03-02T00:33:23;2.85;;;1.50;;
5774;SDS011;2913;51.120;6.772;2024-03-02T00:35:55;2.30;;;1.25;;
5774;SDS011;2913;51.120;6.772;2024-03-02T00:38:21;3.83;;;1.70;;
5774;SDS011;2913;51.120;6.772;2024-03-02T00:40:47;2.28;;;1.25;;
5774;SDS011;2913;51.120;6.772;2024-03-02T00:46:06;2.63;;;1.35;;
5774;SDS011;2913;51.120;6.772;2024-03-02T00:48:34;2.45;;;1.35;;
5774;SDS011;2913;51.120;6.772;2024-03-02T00:51:05;2.08;;;1.40;;
5774;SDS011;2913;51.120;6.772;2024-03-02T00:53:31;4.47;;;1.85;;
5774;SDS011;2913;51.120;6.772;2024-03-02T00:56:00;3.08;;;1.60;;
5774;SDS011;2913;51.120;6.772;2024-03-02T00:58:29;3.55;;;1.60;;
5774;SDS011;2913;51.120;6.772;2024-03-02T01:00:54;3.25;;;1.80;;
5774;SDS011;2913;51.120;6.772;2024-03-02T01:03:20;2.40;;;1.55;;
5774;SDS011;2913;51.120;6.772;2024-03-02T01:05:46;5.07;;;1.75;;
5774;SDS011;2913;51.120;6.772;2024-03-02T01:08:11;4.07;;;1.50;;
5774;SDS011;2913;51.120;6.772;2024-03-02T01:10:37;2.35;;;1.30;;
5774;SDS011;2913;51.120;6.772;2024-03-02T01:13:03;2.53;;;1.15;;
5774;SDS011;2913;51.120;6.772;2024-03-02T01:15:31;2.25;;;1.48;;
5774;SDS011;2913;51.120;6.772;2024-03-02T01:17:59;3.03;;;1.70;;
5774;SDS011;2913;51.120;6.772;2024-03-02T01:20:24;2.30;;;1.40;;
5774;SDS011;2913;51.120;6.772;2024-03-02T01:22:50;3.67;;;1.70;;
5774;SDS011;2913;51.120;6.772;2024-03-02T01:25:17;2.80;;;1.50;;
5774;SDS011;2913;51.120;6.772;2024-03-02T01:27:45;2.65;;;1.20;;
5774;SDS011;2913;51.120;6.772;2024-03-02T01:30:13;3.30;;;1.20;;
5774;SDS011;2913;51.120;6.772;2024-03-02T01:32:39;4.15;;;1.60;;
5774;SDS011;2913;51.120;6.772;2024-03-02T01:35:07;3.17;;;1.30;;
5774;SDS011;2913;51.120;6.772;2024-03-02T01:37:35;6.13;;;1.58;;
5774;SDS011;2913;51.120;6.772;2024-03-02T01:40:01;2.67;;;1.40;;
5774;SDS011;2913;51.120;6.772;2024-03-02T01:42:33;3.72;;;1.63;;
5774;SDS011;2913;51.120;6.772;2024-03-02T01:45:02;2.22;;;1.30;;
5774;SDS011;2913;51.120;6.772;2024-03-02T01:47:29;3.03;;;1.60;;
5774;SDS011;2913;51.120;6.772;2024-03-02T01:49:57;4.25;;;1.73;;
5774;SDS011;2913;51.120;6.772;2024-03-02T01:52:25;2.10;;;1.30;;
5774;SDS011;2913;51.120;6.772;2024-03-02T01:54:54;2.38;;;1.20;;
5774;SDS011;2913;51.120;6.772;2024-03-02T01:57:21;4.53;;;1.38;;
5774;SDS011;2913;51.120;6.772;2024-03-02T01:59:46;2.75;;;1.27;;
5774;SDS011;2913;51.120;6.772;2024-03-02T02:02:15;2.28;;;1.40;;
5774;SDS011;2913;51.120;6.772;2024-03-02T02:04:45;2.50;;;1.42;;
5774;SDS011;2913;51.120;6.772;2024-03-02T02:07:10;5.22;;;1.63;;
5774;SDS011;2913;51.120;6.772;2024-03-02T02:09:36;8.05;;;1.55;;
5774;SDS011;2913;51.120;6.772;2024-03-02T02:12:04;2.65;;;1.58;;
5774;SDS011;2913;51.120;6.772;2024-03-02T02:14:33;4.90;;;1.50;;
5774;SDS011;2913;51.120;6.772;2024-03-02T02:16:59;2.10;;;1.38;;
5774;SDS011;2913;51.120;6.772;2024-03-02T02:19:27;3.17;;;1.40;;
5774;SDS011;2913;51.120;6.772;2024-03-02T02:21:53;4.63;;;1.50;;
5774;SDS011;2913;51.120;6.772;2024-03-02T02:24:19;2.45;;;1.50;;
5774;SDS011;2913;51.120;6.772;2024-03-02T02:26:45;2.80;;;1.33;;
5774;SDS011;2913;51.120;6.772;2024-03-02T02:29:11;3.58;;;1.23;;
5774;SDS011;2913;51.120;6.772;2024-03-02T02:31:40;3.00;;;1.15;;
5774;SDS011;2913;51.120;6.772;2024-03-02T02:34:06;3.83;;;1.35;;
5774;SDS011;2913;51.120;6.772;2024-03-02T02:36:32;4.90;;;1.75;;
5774;SDS011;2913;51.120;6.772;2024-03-02T02:39:02;2.33;;;1.20;;
5774;SDS011;2913;51.120;6.772;2024-03-02T02:41:31;2.72;;;1.55;;
5774;SDS011;2913;51.120;6.772;2024-03-02T02:43:57;4.47;;;1.00;;
5774;SDS011;2913;51.120;6.772;2024-03-02T02:46:23;6.72;;;1.60;;
5774;SDS011;2913;51.120;6.772;2024-03-02T02:48:48;2.45;;;1.35;;
5774;SDS011;2913;51.120;6.772;2024-03-02T02:51:16;4.50;;;1.50;;
5774;SDS011;2913;51.120;6.772;2024-03-02T02:53:42;3.15;;;1.60;;
5774;SDS011;2913;51.120;6.772;2024-03-02T02:56:12;3.65;;;1.50;;
5774;SDS011;2913;51.120;6.772;2024-03-02T02:58:39;2.03;;;1.10;;
5774;SDS011;2913;51.120;6.772;2024-03-02T03:01:06;2.63;;;1.27;;
5774;SDS011;2913;51.120;6.772;2024-03-02T03:03:32;4.68;;;1.35;;
5774;SDS011;2913;51.120;6.772;2024-03-02T03:06:03;2.50;;;1.35;;
5774;SDS011;2913;51.120;6.772;2024-03-02T03:08:28;3.17;;;1.50;;
5774;SDS011;2913;51.120;6.772;2024-03-02T03:10:54;6.43;;;2.40;;
5774;SDS011;2913;51.120;6.772;2024-03-02T03:13:20;3.70;;;1.40;;
5774;SDS011;2913;51.120;6.772;2024-03-02T03:15:47;2.83;;;1.40;;
5774;SDS011;2913;51.120;6.772;2024-03-02T03:18:13;2.78;;;1.27;;
5774;SDS011;2913;51.120;6.772;2024-03-02T03:20:39;3.10;;;1.48;;
5774;SDS011;2913;51.120;6.772;2024-03-02T03:23:04;3.15;;;1.48;;
5774;SDS011;2913;51.120;6.772;2024-03-02T03:25:33;2.65;;;1.38;;
5774;SDS011;2913;51.120;6.772;2024-03-02T03:27:59;2.40;;;1.38;;
5774;SDS011;2913;51.120;6.772;2024-03-02T03:30:29;5.53;;;1.13;;
5774;SDS011;2913;51.120;6.772;2024-03-02T03:32:57;1.58;;;1.15;;
5774;SDS011;2913;51.120;6.772;2024-03-02T03:35:24;2.08;;;1.38;;
5774;SDS011;2913;51.120;6.772;2024-03-02T03:37:52;6.70;;;1.65;;
5774;SDS011;2913;51.120;6.772;2024-03-02T03:40:18;4.30;;;1.65;;
5774;SDS011;2913;51.120;6.772;2024-03-02T03:42:44;4.13;;;1.48;;
5774;SDS011;2913;51.120;6.772;2024-03-02T03:45:10;2.97;;;1.60;;
5774;SDS011;2913;51.120;6.772;2024-03-02T03:47:37;2.67;;;1.48;;
5774;SDS011;2913;51.120;6.772;2024-03-02T03:50:05;2.88;;;1.25;;
5774;SDS011;2913;51.120;6.772;2024-03-02T03:52:32;2.55;;;1.20;;
5774;SDS011;2913;51.120;6.772;2024-03-02T03:55:00;3.17;;;1.45;;
5774;SDS011;2913;51.120;6.772;2024-03-02T03:57:33;5.65;;;1.30;;
5774;SDS011;2913;51.120;6.772;2024-03-02T04:00:01;3.33;;;1.67;;
5774;SDS011;2913;51.120;6.772;2024-03-02T04:02:26;4.88;;;1.40;;
5774;SDS011;2913;51.120;6.772;2024-03-02T04:04:52;4.05;;;1.52;;
5774;SDS011;2913;51.120;6.772;2024-03-02T04:07:18;4.00;;;1.17;;
5774;SDS011;2913;51.120;6.772;2024-03-02T04:09:43;1.25;;;0.77;;
5774;SDS011;2913;51.120;6.772;2024-03-02T04:12:09;3.80;;;1.38;;
5774;SDS011;2913;51.120;6.772;2024-03-02T04:14:35;2.75;;;1.48;;
5774;SDS011;2913;51.120;6.772;2024-03-02T04:17:00;2.25;;;1.25;;
5774;SDS011;2913;51.120;6.772;2024-03-02T04:19:28;2.95;;;1.52;;
5774;SDS011;2913;51.120;6.772;2024-03-02T04:21:54;2.75;;;1.33;;
5774;SDS011;2913;51.120;6.772;2024-03-02T04:24:19;2.90;;;1.42;;
5774;SDS011;2913;51.120;6.772;2024-03-02T04:26:45;1.73;;;1.00;;
5774;SDS011;2913;51.120;6.772;2024-03-02T04:29:10;3.50;;;1.45;;
5774;SDS011;2913;51.120;6.772;2024-03-02T04:31:36;2.75;;;1.33;;
5774;SDS011;2913;51.120;6.772;2024-03-02T04:34:01;1.88;;;1.02;;
5774;SDS011;2913;51.120;6.772;2024-03-02T04:36:27;3.55;;;1.52;;
5774;SDS011;2913;51.120;6.772;2024-03-02T04:38:53;2.13;;;1.20;;
5774;SDS011;2913;51.120;6.772;2024-03-02T04:41:18;4.88;;;1.30;;
5774;SDS011;2913;51.120;6.772;2024-03-02T04:43:44;2.45;;;1.30;;
5774;SDS011;2913;51.120;6.772;2024-03-02T04:46:09;1.83;;;1.27;;
5774;SDS011;2913;51.120;6.772;2024-03-02T04:48:35;2.83;;;1.35;;
5774;SDS011;2913;51.120;6.772;2024-03-02T04:51:01;2.65;;;1.30;;
5774;SDS011;2913;51.120;6.772;2024-03-02T04:53:27;2.53;;;1.30;;
5774;SDS011;2913;51.120;6.772;2024-03-02T04:55:52;6.50;;;1.60;;
5774;SDS011;2913;51.120;6.772;2024-03-02T04:58:25;3.45;;;1.40;;
5774;SDS011;2913;51.120;6.772;2024-03-02T05:00:53;3.58;;;1.45;;
5774;SDS011;2913;51.120;6.772;2024-03-02T05:03:18;2.22;;;1.30;;
5774;SDS011;2913;51.120;6.772;2024-03-02T05:05:44;3.88;;;1.35;;
5774;SDS011;2913;51.120;6.772;2024-03-02T05:08:09;2.38;;;1.10;;
5774;SDS011;2913;51.120;6.772;2024-03-02T05:10:37;3.30;;;1.10;;
5774;SDS011;2913;51.120;6.772;2024-03-02T05:13:03;4.13;;;1.42;;
5774;SDS011;2913;51.120;6.772;2024-03-02T05:15:29;4.13;;;1.65;;
5774;SDS011;2913;51.120;6.772;2024-03-02T05:17:57;3.85;;;1.52;;
5774;SDS011;2913;51.120;6.772;2024-03-02T05:20:27;3.42;;;1.30;;
5774;SDS011;2913;51.120;6.772;2024-03-02T05:22:52;5.15;;;1.70;;
5774;SDS011;2913;51.120;6.772;2024-03-02T05:25:18;4.00;;;1.50;;
5774;SDS011;2913;51.120;6.772;2024-03-02T05:27:43;5.30;;;1.73;;
5774;SDS011;2913;51.120;6.772;2024-03-02T05:30:09;3.42;;;1.67;;
5774;SDS011;2913;51.120;6.772;2024-03-02T05:32:35;2.45;;;1.33;;
5774;SDS011;2913;51.120;6.772;2024-03-02T05:35:01;3.60;;;1.65;;
5774;SDS011;2913;51.120;6.772;2024-03-02T05:37:30;5.20;;;1.40;;
5774;SDS011;2913;51.120;6.772;2024-03-02T05:39:55;4.15;;;1.60;;
5774;SDS011;2913;51.120;6.772;2024-03-02T05:42:21;4.30;;;1.48;;
5774;SDS011;2913;51.120;6.772;2024-03-02T05:44:49;4.97;;;1.80;;
5774;SDS011;2913;51.120;6.772;2024-03-02T05:47:15;3.55;;;1.40;;
5774;SDS011;2913;51.120;6.772;2024-03-02T05:49:40;2.33;;;1.50;;
5774;SDS011;2913;51.120;6.772;2024-03-02T05:52:06;2.22;;;1.30;;
5774;SDS011;2913;51.120;6.772;2024-03-02T05:54:32;2.97;;;1.48;;
5774;SDS011;2913;51.120;6.772;2024-03-02T05:57:00;2.50;;;1.80;;
5774;SDS011;2913;51.120;6.772;2024-03-02T05:59:41;4.07;;;1.60;;
5774;SDS011;2913;51.120;6.772;2024-03-02T06:02:07;2.78;;;1.70;;
5774;SDS011;2913;51.120;6.772;2024-03-02T06:04:33;2.03;;;1.58;;
5774;SDS011;2913;51.120;6.772;2024-03-02T06:06:59;4.28;;;1.60;;
5774;SDS011;2913;51.120;6.772;2024-03-02T06:09:24;3.22;;;1.50;;
5774;SDS011;2913;51.120;6.772;2024-03-02T06:11:51;5.55;;;2.10;;
5774;SDS011;2913;51.120;6.772;2024-03-02T06:14:17;3.42;;;1.83;;
5774;SDS011;2913;51.120;6.772;2024-03-02T06:16:42;4.15;;;1.75;;
5774;SDS011;2913;51.120;6.772;2024-03-02T06:19:08;5.30;;;1.70;;
5774;SDS011;2913;51.120;6.772;2024-03-02T06:21:33;2.90;;;1.63;;
5774;SDS011;2913;51.120;6.772;2024-03-02T06:24:01;6.10;;;1.95;;
5774;SDS011;2913;51.120;6.772;2024-03-02T06:26:29;4.38;;;1.85;;
5774;SDS011;2913;51.120;6.772;2024-03-02T06:28:56;4.18;;;2.03;;
5774;SDS011;2913;51.120;6.772;2024-03-02T06:31:22;4.72;;;1.92;;
5774;SDS011;2913;51.120;6.772;2024-03-02T06:33:48;3.58;;;1.67;;
5774;SDS011;2913;51.120;6.772;2024-03-02T06:36:14;6.03;;;1.83;;
5774;SDS011;2913;51.120;6.772;2024-03-02T06:38:43;3.40;;;1.83;;
5774;SDS011;2913;51.120;6.772;2024-03-02T06:41:10;4.20;;;2.00;;
5774;SDS011;2913;51.120;6.772;2024-03-02T06:43:36;5.18;;;1.95;;
5774;SDS011;2913;51.120;6.772;2024-03-02T06:46:03;3.83;;;1.98;;
5774;SDS011;2913;51.120;6.772;2024-03-02T06:48:30;4.43;;;2.10;;
5774;SDS011;2913;51.120;6.772;2024-03-02T06:51:00;6.07;;;1.90;;
5774;SDS011;2913;51.120;6.772;2024-03-02T06:53:26;3.90;;;1.77;;
5774;SDS011;2913;51.120;6.772;2024-03-02T06:55:55;7.20;;;1.70;;
5774;SDS011;2913;51.120;6.772;2024-03-02T06:58:23;4.60;;;1.80;;
5774;SDS011;2913;51.120;6.772;2024-03-02T07:00:48;4.25;;;1.83;;
5774;SDS011;2913;51.120;6.772;2024-03-02T07:03:14;3.25;;;1.77;;
5774;SDS011;2913;51.120;6.772;2024-03-02T07:05:42;2.78;;;1.40;;
5774;SDS011;2913;51.120;6.772;2024-03-02T07:08:08;3.05;;;1.70;;
5774;SDS011;2913;51.120;6.772;2024-03-02T07:10:36;4.68;;;2.22;;
5774;SDS011;2913;51.120;6.772;2024-03-02T07:13:02;3.17;;;1.80;;
5774;SDS011;2913;51.120;6.772;2024-03-02T07:15:32;4.03;;;1.85;;
5774;SDS011;2913;51.120;6.772;2024-03-02T07:18:16;3.45;;;2.17;;
5774;SDS011;2913;51.120;6.772;2024-03-02T07:20:44;3.88;;;1.83;;
5774;SDS011;2913;51.120;6.772;2024-03-02T07:23:12;4.82;;;2.10;;
5774;SDS011;2913;51.120;6.772;2024-03-02T07:25:44;3.17;;;1.80;;
5774;SDS011;2913;51.120;6.772;2024-03-02T07:28:10;4.47;;;2.13;;
5774;SDS011;2913;51.120;6.772;2024-03-02T07:30:41;9.77;;;2.50;;
5774;SDS011;2913;51.120;6.772;2024-03-02T07:33:11;3.20;;;2.20;;
5774;SDS011;2913;51.120;6.772;2024-03-02T07:35:37;4.38;;;1.90;;
5774;SDS011;2913;51.120;6.772;2024-03-02T07:38:05;3.63;;;1.90;;
5774;SDS011;2913;51.120;6.772;2024-03-02T07:40:33;3.35;;;2.10;;
5774;SDS011;2913;51.120;6.772;2024-03-02T07:42:58;4.05;;;2.45;;
5774;SDS011;2913;51.120;6.772;2024-03-02T07:45:24;8.43;;;1.90;;
5774;SDS011;2913;51.120;6.772;2024-03-02T07:47:50;8.15;;;2.38;;
5774;SDS011;2913;51.120;6.772;2024-03-02T07:50:18;4.32;;;1.92;;
5774;SDS011;2913;51.120;6.772;2024-03-02T07:52:44;2.83;;;1.67;;
5774;SDS011;2913;51.120;6.772;2024-03-02T07:55:10;4.22;;;1.88;;
5774;SDS011;2913;51.120;6.772;2024-03-02T07:57:36;4.68;;;1.90;;
5774;SDS011;2913;51.120;6.772;2024-03-02T08:00:02;3.70;;;1.60;;
5774;SDS011;2913;51.120;6.772;2024-03-02T08:02:28;3.85;;;1.50;;
5774;SDS011;2913;51.120;6.772;2024-03-02T08:04:56;4.97;;;1.73;;
5774;SDS011;2913;51.120;6.772;2024-03-02T08:07:21;4.10;;;1.45;;
5774;SDS011;2913;51.120;6.772;2024-03-02T08:09:47;7.97;;;1.48;;
5774;SDS011;2913;51.120;6.772;2024-03-02T08:12:13;6.25;;;1.30;;
5774;SDS011;2913;51.120;6.772;2024-03-02T08:14:41;3.30;;;1.05;;
5774;SDS011;2913;51.120;6.772;2024-03-02T08:17:07;4.70;;;1.40;;
5774;SDS011;2913;51.120;6.772;2024-03-02T08:19:37;4.72;;;1.35;;
5774;SDS011;2913;51.120;6.772;2024-03-02T08:22:05;0.77;;;0.73;;
5774;SDS011;2913;51.120;6.772;2024-03-02T08:24:33;5.60;;;1.30;;
5774;SDS011;2913;51.120;6.772;2024-03-02T08:27:01;5.25;;;1.20;;
5774;SDS011;2913;51.120;6.772;2024-03-02T08:29:29;1.92;;;1.10;;
5774;SDS011;2913;51.120;6.772;2024-03-02T08:31:59;3.50;;;1.27;;
5774;SDS011;2913;51.120;6.772;2024-03-02T08:34:24;1.77;;;1.13;;
5774;SDS011;2913;51.120;6.772;2024-03-02T08:36:50;1.27;;;0.80;;
5774;SDS011;2913;51.120;6.772;2024-03-02T08:39:16;1.98;;;1.00;;
5774;SDS011;2913;51.120;6.772;2024-03-02T08:41:45;2.88;;;1.10;;
5774;SDS011;2913;51.120;6.772;2024-03-02T08:44:12;2.40;;;1.20;;
5774;SDS011;2913;51.120;6.772;2024-03-02T08:46:39;1.83;;;0.90;;
5774;SDS011;2913;51.120;6.772;2024-03-02T08:49:05;4.50;;;1.13;;
5774;SDS011;2913;51.120;6.772;2024-03-02T08:51:31;4.30;;;1.02;;
5774;SDS011;2913;51.120;6.772;2024-03-02T08:53:57;1.38;;;0.90;;
5774;SDS011;2913;51.120;6.772;2024-03-02T08:56:25;2.67;;;1.17;;
5774;SDS011;2913;51.120;6.772;2024-03-02T08:58:53;2.28;;;1.00;;
5774;SDS011;2913;51.120;6.772;2024-03-02T09:01:19;3.38;;;1.20;;
5774;SDS011;2913;51.120;6.772;2024-03-02T09:03:47;2.60;;;1.20;;
5774;SDS011;2913;51.120;6.772;2024-03-02T09:06:14;3.08;;;1.20;;
5774;SDS011;2913;51.120;6.772;2024-03-02T09:08:42;1.58;;;1.00;;
5774;SDS011;2913;51.120;6.772;2024-03-02T09:11:08;1.88;;;1.00;;
5774;SDS011;2913;51.120;6.772;2024-03-02T09:13:37;3.65;;;1.00;;
5774;SDS011;2913;51.120;6.772;2024-03-02T09:16:03;2.92;;;0.90;;
5774;SDS011;2913;51.120;6.772;2024-03-02T09:18:32;2.75;;;1.00;;
5774;SDS011;2913;51.120;6.772;2024-03-02T09:20:58;2.28;;;0.95;;
5774;SDS011;2913;51.120;6.772;2024-03-02T09:23:25;1.40;;;0.90;;
5774;SDS011;2913;51.120;6.772;2024-03-02T09:25:51;3.53;;;0.80;;
5774;SDS011;2913;51.120;6.772;2024-03-02T09:28:21;5.32;;;1.27;;
5774;SDS011;2913;51.120;6.772;2024-03-02T09:30:47;2.08;;;0.93;;
5774;SDS011;2913;51.120;6.772;2024-03-02T09:33:13;3.45;;;0.93;;
5774;SDS011;2913;51.120;6.772;2024-03-02T09:35:43;2.15;;;0.82;;
5774;SDS011;2913;51.120;6.772;2024-03-02T09:38:09;3.60;;;0.80;;
5774;SDS011;2913;51.120;6.772;2024-03-02T09:40:39;1.52;;;0.63;;
5774;SDS011;2913;51.120;6.772;2024-03-02T09:43:09;2.92;;;0.70;;
5774;SDS011;2913;51.120;6.772;2024-03-02T09:45:40;3.70;;;0.67;;
5774;SDS011;2913;51.120;6.772;2024-03-02T09:48:06;0.95;;;0.50;;
5774;SDS011;2913;51.120;6.772;2024-03-02T09:50:32;2.28;;;1.02;;
5774;SDS011;2913;51.120;6.772;2024-03-02T09:52:58;2.67;;;0.60;;
5774;SDS011;2913;51.120;6.772;2024-03-02T09:55:26;2.08;;;0.60;;
5774;SDS011;2913;51.120;6.772;2024-03-02T09:57:52;2.40;;;0.60;;
5774;SDS011;2913;51.120;6.772;2024-03-02T10:00:21;1.77;;;0.50;;
5774;SDS011;2913;51.120;6.772;2024-03-02T10:02:48;1.30;;;0.50;;
5774;SDS011;2913;51.120;6.772;2024-03-02T10:05:23;2.72;;;0.57;;
5774;SDS011;2913;51.120;6.772;2024-03-02T10:08:08;3.40;;;0.63;;
5774;SDS011;2913;51.120;6.772;2024-03-02T10:10:38;2.80;;;0.85;;
5774;SDS011;2913;51.120;6.772;2024-03-02T10:13:08;2.50;;;0.63;;
5774;SDS011;2913;51.120;6.772;2024-03-02T10:15:41;2.17;;;0.57;;
5774;SDS011;2913;51.120;6.772;2024-03-02T10:18:13;1.85;;;0.68;;
5774;SDS011;2913;51.120;6.772;2024-03-02T10:20:39;1.58;;;0.50;;
5774;SDS011;2913;51.120;6.772;2024-03-02T10:23:10;1.73;;;0.68;;
5774;SDS011;2913;51.120;6.772;2024-03-02T10:25:43;2.08;;;0.40;;
5774;SDS011;2913;51.120;6.772;2024-03-02T10:28:10;0.60;;;0.30;;
5774;SDS011;2913;51.120;6.772;2024-03-02T10:30:35;1.13;;;0.50;;
5774;SDS011;2913;51.120;6.772;2024-03-02T10:33:02;1.38;;;0.60;;
5774;SDS011;2913;51.120;6.772;2024-03-02T10:35:30;5.80;;;0.60;;
5774;SDS011;2913;51.120;6.772;2024-03-02T10:38:03;0.98;;;0.55;;
5774;SDS011;2913;51.120;6.772;2024-03-02T10:40:31;1.63;;;0.50;;
5774;SDS011;2913;51.120;6.772;2024-03-02T10:42:57;2.20;;;0.60;;
5774;SDS011;2913;51.120;6.772;2024-03-02T10:45:26;3.20;;;0.80;;
5774;SDS011;2913;51.120;6.772;2024-03-02T10:47:55;3.15;;;0.50;;
5774;SDS011;2913;51.120;6.772;2024-03-02T10:50:21;1.67;;;0.50;;
5774;SDS011;2913;51.120;6.772;2024-03-02T10:52:48;1.90;;;0.55;;
5774;SDS011;2913;51.120;6.772;2024-03-02T10:55:14;1.75;;;0.47;;
5774;SDS011;2913;51.120;6.772;2024-03-02T10:57:53;1.02;;;0.55;;
5774;SDS011;2913;51.120;6.772;2024-03-02T11:00:21;2.55;;;0.60;;
5774;SDS011;2913;51.120;6.772;2024-03-02T11:02:59;0.93;;;0.47;;
5774;SDS011;2913;51.120;6.772;2024-03-02T11:05:35;4.28;;;0.68;;
5774;SDS011;2913;51.120;6.772;2024-03-02T11:08:07;2.22;;;0.90;;
5774;SDS011;2913;51.120;6.772;2024-03-02T11:10:38;4.15;;;0.90;;
5774;SDS011;2913;51.120;6.772;2024-03-02T11:13:11;4.07;;;0.80;;
5774;SDS011;2913;51.120;6.772;2024-03-02T11:15:42;3.88;;;1.08;;
5774;SDS011;2913;51.120;6.772;2024-03-02T11:18:09;1.77;;;0.70;;
5774;SDS011;2913;51.120;6.772;2024-03-02T11:20:39;2.40;;;1.00;;
5774;SDS011;2913;51.120;6.772;2024-03-02T11:23:08;1.80;;;0.95;;
5774;SDS011;2913;51.120;6.772;2024-03-02T11:25:34;2.58;;;1.10;;
5774;SDS011;2913;51.120;6.772;2024-03-02T11:28:05;3.88;;;1.25;;
5774;SDS011;2913;51.120;6.772;2024-03-02T11:32:57;1.40;;;0.55;;
5774;SDS011;2913;51.120;6.772;2024-03-02T11:35:26;2.80;;;0.98;;
5774;SDS011;2913;51.120;6.772;2024-03-02T11:37:55;2.65;;;1.05;;
5774;SDS011;2913;51.120;6.772;2024-03-02T11:40:26;2.50;;;0.80;;
5774;SDS011;2913;51.120;6.772;2024-03-02T11:42:56;1.58;;;0.90;;
5774;SDS011;2913;51.120;6.772;2024-03-02T11:45:22;1.45;;;0.63;;
5774;SDS011;2913;51.120;6.772;2024-03-02T11:47:51;2.47;;;0.80;;
5774;SDS011;2913;51.120;6.772;2024-03-02T11:50:35;1.90;;;0.82;;
5774;SDS011;2913;51.120;6.772;2024-03-02T11:53:05;1.23;;;0.68;;
5774;SDS011;2913;51.120;6.772;2024-03-02T11:55:37;2.03;;;0.50;;
5774;SDS011;2913;51.120;6.772;2024-03-02T11:58:05;4.00;;;1.05;;
5774;SDS011;2913;51.120;6.772;2024-03-02T12:00:32;1.00;;;0.40;;
5774;SDS011;2913;51.120;6.772;2024-03-02T12:05:29;2.15;;;0.70;;
5774;SDS011;2913;51.120;6.772;2024-03-02T12:07:59;1.23;;;0.90;;
5774;SDS011;2913;51.120;6.772;2024-03-02T12:10:31;1.30;;;0.73;;
5774;SDS011;2913;51.120;6.772;2024-03-02T12:13:04;2.35;;;0.95;;
5774;SDS011;2913;51.120;6.772;2024-03-02T12:15:33;0.73;;;0.52;;
5774;SDS011;2913;51.120;6.772;2024-03-02T12:18:01;1.40;;;0.65;;
5774;SDS011;2913;51.120;6.772;2024-03-02T12:20:29;0.77;;;0.52;;
5774;SDS011;2913;51.120;6.772;2024-03-02T12:22:59;3.10;;;0.90;;
5774;SDS011;2913;51.120;6.772;2024-03-02T12:25:30;1.83;;;0.80;;
5774;SDS011;2913;51.120;6.772;2024-03-02T12:28:01;2.80;;;0.80;;
5774;SDS011;2913;51.120;6.772;2024-03-02T12:30:29;1.75;;;0.43;;
5774;SDS011;2913;51.120;6.772;2024-03-02T12:32:55;2.30;;;0.82;;
5774;SDS011;2913;51.120;6.772;2024-03-02T12:35:21;1.98;;;0.80;;
5774;SDS011;2913;51.120;6.772;2024-03-02T12:37:49;0.77;;;0.52;;
5774;SDS011;2913;51.120;6.772;2024-03-02T12:40:18;1.45;;;0.60;;
5774;SDS011;2913;51.120;6.772;2024-03-02T12:42:45;1.67;;;0.63;;
5774;SDS011;2913;51.120;6.772;2024-03-02T12:45:12;0.75;;;0.50;;
5774;SDS011;2913;51.120;6.772;2024-03-02T12:47:39;1.20;;;0.88;;
5774;SDS011;2913;51.120;6.772;2024-03-02T12:50:06;0.50;;;0.50;;
5774;SDS011;2913;51.120;6.772;2024-03-02T12:52:32;1.05;;;0.52;;
5774;SDS011;2913;51.120;6.772;2024-03-02T12:54:59;1.35;;;0.90;;
5774;SDS011;2913;51.120;6.772;2024-03-02T12:57:26;2.72;;;0.80;;
5774;SDS011;2913;51.120;6.772;2024-03-02T12:59:54;3.53;;;1.10;;
5774;SDS011;2913;51.120;6.772;2024-03-02T13:02:34;3.15;;;1.17;;
5774;SDS011;2913;51.120;6.772;2024-03-02T13:05:10;5.40;;;1.33;;
5774;SDS011;2913;51.120;6.772;2024-03-02T13:07:36;1.95;;;0.90;;
5774;SDS011;2913;51.120;6.772;2024-03-02T13:10:03;3.35;;;0.50;;
5774;SDS011;2913;51.120;6.772;2024-03-02T13:12:32;0.68;;;0.60;;
5774;SDS011;2913;51.120;6.772;2024-03-02T13:14:58;1.80;;;0.80;;
5774;SDS011;2913;51.120;6.772;2024-03-02T13:17:24;1.40;;;0.90;;
5774;SDS011;2913;51.120;6.772;2024-03-02T13:22:20;0.75;;;0.63;;
5774;SDS011;2913;51.120;6.772;2024-03-02T13:24:49;3.67;;;1.33;;
5774;SDS011;2913;51.120;6.772;2024-03-02T13:27:15;2.80;;;0.80;;
5774;SDS011;2913;51.120;6.772;2024-03-02T13:29:41;0.88;;;0.65;;
5774;SDS011;2913;51.120;6.772;2024-03-02T13:32:09;0.43;;;0.40;;
5774;SDS011;2913;51.120;6.772;2024-03-02T13:34:35;2.60;;;0.80;;
5774;SDS011;2913;51.120;6.772;2024-03-02T13:37:03;0.95;;;0.52;;
5774;SDS011;2913;51.120;6.772;2024-03-02T13:39:33;0.98;;;0.70;;
5774;SDS011;2913;51.120;6.772;2024-03-02T13:42:10;1.08;;;0.57;;
5774;SDS011;2913;51.120;6.772;2024-03-02T13:44:40;3.13;;;0.70;;
5774;SDS011;2913;51.120;6.772;2024-03-02T13:47:11;2.15;;;1.08;;
5774;SDS011;2913;51.120;6.772;2024-03-02T13:49:39;0.80;;;0.70;;
5774;SDS011;2913;51.120;6.772;2024-03-02T13:52:08;0.88;;;0.55;;
5774;SDS011;2913;51.120;6.772;2024-03-02T13:57:08;0.80;;;0.70;;
5774;SDS011;2913;51.120;6.772;2024-03-02T13:59:35;1.00;;;0.80;;
5774;SDS011;2913;51.120;6.772;2024-03-02T14:02:01;3.55;;;0.77;;
5774;SDS011;2913;51.120;6.772;2024-03-02T14:04:29;1.17;;;0.80;;
5774;SDS011;2913;51.120;6.772;2024-03-02T14:07:04;1.02;;;0.90;;
5774;SDS011;2913;51.120;6.772;2024-03-02T14:09:35;1.10;;;0.73;;
5774;SDS011;2913;51.120;6.772;2024-03-02T14:12:03;2.60;;;1.60;;
5774;SDS011;2913;51.120;6.772;2024-03-02T14:14:29;2.65;;;1.60;;
5774;SDS011;2913;51.120;6.772;2024-03-02T14:16:55;1.73;;;0.90;;
5774;SDS011;2913;51.120;6.772;2024-03-02T14:19:21;3.08;;;1.73;;
5774;SDS011;2913;51.120;6.772;2024-03-02T14:21:47;2.38;;;1.17;;
5774;SDS011;2913;51.120;6.772;2024-03-02T14:24:13;3.08;;;1.27;;
5774;SDS011;2913;51.120;6.772;2024-03-02T14:26:39;2.88;;;0.82;;
5774;SDS011;2913;51.120;6.772;2024-03-02T14:29:05;1.00;;;0.90;;
5774;SDS011;2913;51.120;6.772;2024-03-02T14:31:31;1.63;;;0.80;;
5774;SDS011;2913;51.120;6.772;2024-03-02T14:33:57;2.28;;;1.17;;
5774;SDS011;2913;51.120;6.772;2024-03-02T14:36:27;2.13;;;0.90;;
5774;SDS011;2913;51.120;6.772;2024-03-02T14:38:55;0.93;;;0.75;;
5774;SDS011;2913;51.120;6.772;2024-03-02T14:41:20;0.90;;;0.52;;
5774;SDS011;2913;51.120;6.772;2024-03-02T14:43:46;0.60;;;0.47;;
5774;SDS011;2913;51.120;6.772;2024-03-02T14:46:13;3.95;;;1.30;;
5774;SDS011;2913;51.120;6.772;2024-03-02T14:48:43;1.08;;;0.75;;
5774;SDS011;2913;51.120;6.772;2024-03-02T14:51:10;2.05;;;0.80;;
5774;SDS011;2913;51.120;6.772;2024-03-02T14:53:38;1.00;;;0.60;;
5774;SDS011;2913;51.120;6.772;2024-03-02T14:56:06;0.70;;;0.60;;
5774;SDS011;2913;51.120;6.772;2024-03-02T14:58:34;1.55;;;0.70;;
5774;SDS011;2913;51.120;6.772;2024-03-02T15:01:03;1.58;;;0.80;;
5774;SDS011;2913;51.120;6.772;2024-03-02T15:03:33;0.95;;;0.70;;
5774;SDS011;2913;51.120;6.772;2024-03-02T15:05:58;1.33;;;0.80;;
5774;SDS011;2913;51.120;6.772;2024-03-02T15:08:28;1.67;;;1.00;;
5774;SDS011;2913;51.120;6.772;2024-03-02T15:10:53;1.55;;;0.93;;
5774;SDS011;2913;51.120;6.772;2024-03-02T15:13:24;1.30;;;0.60;;
5774;SDS011;2913;51.120;6.772;2024-03-02T15:15:51;0.82;;;0.60;;
5774;SDS011;2913;51.120;6.772;2024-03-02T15:18:20;1.00;;;0.70;;
5774;SDS011;2913;51.120;6.772;2024-03-02T15:20:45;1.45;;;0.80;;
5774;SDS011;2913;51.120;6.772;2024-03-02T15:23:11;316.80;;;84.75;;
5774;SDS011;2913;51.120;6.772;2024-03-02T15:25:36;2.28;;;1.23;;
5774;SDS011;2913;51.120;6.772;2024-03-02T15:28:02;0.68;;;0.50;;
5774;SDS011;2913;51.120;6.772;2024-03-02T15:30:30;1.27;;;0.90;;
5774;SDS011;2913;51.120;6.772;2024-03-02T15:32:58;1.10;;;0.88;;
5774;SDS011;2913;51.120;6.772;2024-03-02T15:35:24;1.85;;;0.73;;